Aviation Digital Data Service (ADDS)

Output produced by METARs form (0100 UTC 24 May 2022)
found at http://www.aviationweather.gov/metar/data/
 
OLBA 240100Z 21015KT 8000 NSC 21/14 Q1011 NOSIG
TAF OLBA 232200Z 2400/2506 20018KT 8000 SCT030 
     BECMG 2412/2415 24012KT FEW026 
     BECMG 2418/2421 19008KT 
     BECMG 2500/2503 14006KT